createdAt,value
2018-11-26T00:00:15.718Z,0.00
2018-11-26T00:01:15.631Z,0.00
2018-11-26T00:02:15.560Z,0.00
2018-11-26T00:03:15.472Z,0.00
2018-11-26T00:04:15.381Z,0.00
2018-11-26T00:05:15.294Z,0.00
2018-11-26T00:06:15.207Z,0.00
2018-11-26T00:07:15.119Z,0.00
2018-11-26T00:08:15.032Z,0.00
2018-11-26T00:09:14.956Z,0.00
2018-11-26T00:10:14.870Z,0.00
2018-11-26T00:11:14.783Z,0.00
2018-11-26T00:12:14.695Z,0.00
2018-11-26T00:13:14.609Z,0.00
2018-11-26T00:14:14.520Z,0.00
2018-11-26T00:15:14.445Z,0.00
2018-11-26T00:16:14.357Z,0.00
2018-11-26T00:17:14.272Z,0.00
2018-11-26T00:18:14.195Z,0.00
2018-11-26T00:19:14.098Z,0.00
2018-11-26T00:20:14.007Z,0.00
2018-11-26T00:21:13.923Z,0.00
2018-11-26T00:22:13.846Z,0.00
2018-11-26T00:23:13.758Z,0.00
2018-11-26T00:24:13.671Z,0.00
2018-11-26T00:25:13.583Z,0.00
2018-11-26T00:26:13.497Z,0.00
2018-11-26T00:27:13.416Z,0.00
2018-11-26T00:28:13.323Z,0.00
2018-11-26T00:29:13.247Z,0.00
2018-11-26T00:30:13.158Z,0.00
2018-11-26T00:31:13.072Z,0.00
2018-11-26T00:32:12.984Z,0.00
2018-11-26T00:33:12.897Z,0.00
2018-11-26T00:34:12.809Z,0.00
2018-11-26T00:35:12.724Z,0.00
2018-11-26T00:36:12.648Z,0.00
2018-11-26T00:37:12.559Z,0.00
2018-11-26T00:38:12.472Z,0.00
2018-11-26T00:39:12.384Z,0.00
2018-11-26T00:40:12.299Z,0.00
2018-11-26T00:41:12.223Z,0.00
2018-11-26T00:42:12.124Z,0.00
2018-11-26T00:43:12.035Z,0.00
2018-11-26T00:44:11.960Z,0.00
2018-11-26T00:45:11.873Z,0.00
2018-11-26T00:46:11.789Z,0.00
2018-11-26T00:47:11.698Z,0.00
2018-11-26T00:48:11.611Z,0.00
2018-11-26T00:49:11.524Z,0.00
2018-11-26T00:50:11.436Z,0.00
2018-11-26T00:51:11.350Z,0.00
2018-11-26T00:52:11.275Z,0.00
2018-11-26T00:53:11.187Z,0.00
2018-11-26T00:54:11.106Z,0.00
2018-11-26T00:55:11.011Z,0.00
2018-11-26T00:56:10.926Z,0.00
2018-11-26T00:57:10.837Z,0.00
2018-11-26T00:58:10.756Z,0.00
2018-11-26T00:59:10.679Z,0.00
2018-11-26T01:00:10.591Z,0.00
2018-11-26T01:01:10.501Z,0.00
2018-11-26T01:02:10.412Z,0.00
2018-11-26T01:03:10.326Z,0.00
2018-11-26T01:04:10.238Z,0.00
2018-11-26T01:05:10.154Z,0.00
2018-11-26T01:06:10.129Z,0.00
2018-11-26T01:07:09.979Z,0.00
2018-11-26T01:08:09.888Z,0.00
2018-11-26T01:09:09.804Z,0.00
2018-11-26T01:10:09.714Z,0.00
2018-11-26T01:11:09.639Z,0.00
2018-11-26T01:12:09.551Z,0.00
2018-11-26T01:13:09.463Z,0.00
2018-11-26T01:14:09.376Z,0.00
2018-11-26T01:15:09.289Z,0.00
2018-11-26T01:16:09.202Z,0.00
2018-11-26T01:17:09.114Z,0.00
2018-11-26T01:18:09.027Z,0.00
2018-11-26T01:19:08.940Z,0.00
2018-11-26T01:20:08.852Z,0.00
2018-11-26T01:21:08.777Z,0.00
2018-11-26T01:22:08.689Z,0.00
2018-11-26T01:23:08.603Z,0.00
2018-11-26T01:24:08.518Z,0.00
2018-11-26T01:25:08.429Z,0.00
2018-11-26T01:26:08.340Z,0.00
2018-11-26T01:27:08.253Z,0.00
2018-11-26T01:28:08.179Z,0.00
2018-11-26T01:29:08.078Z,0.00
2018-11-26T01:30:08.006Z,0.00
2018-11-26T01:31:07.906Z,0.00
2018-11-26T01:32:07.828Z,0.00
2018-11-26T01:33:07.741Z,0.00
2018-11-26T01:34:07.654Z,0.00
2018-11-26T01:35:07.579Z,0.00
2018-11-26T01:36:07.479Z,0.00
2018-11-26T01:37:07.391Z,0.00
2018-11-26T01:38:07.314Z,0.00
2018-11-26T01:39:07.217Z,0.00
2018-11-26T01:40:07.130Z,0.00
2018-11-26T01:41:07.042Z,0.00
2018-11-26T01:42:06.955Z,0.00
2018-11-26T01:43:06.880Z,0.00
2018-11-26T01:44:06.792Z,0.00
2018-11-26T01:45:06.710Z,0.00
2018-11-26T01:46:06.618Z,0.00
2018-11-26T01:47:06.531Z,0.00
2018-11-26T01:48:06.443Z,0.00
2018-11-26T01:49:06.355Z,0.00
2018-11-26T01:50:06.267Z,0.00
2018-11-26T01:51:06.181Z,0.00
2018-11-26T01:52:06.105Z,0.00
2018-11-26T01:53:06.005Z,0.00
2018-11-26T01:54:05.921Z,0.00
2018-11-26T01:55:05.832Z,0.00
2018-11-26T01:56:05.743Z,0.00
2018-11-26T01:57:05.668Z,0.00
2018-11-26T01:58:05.570Z,0.00
2018-11-26T01:59:05.494Z,0.00
2018-11-26T02:00:05.407Z,0.00
2018-11-26T02:01:05.332Z,0.00
2018-11-26T02:02:05.236Z,0.00
2018-11-26T02:03:05.146Z,0.00
2018-11-26T02:04:05.058Z,0.00
2018-11-26T02:05:04.969Z,0.00
2018-11-26T02:06:04.883Z,0.00
2018-11-26T02:07:04.798Z,0.00
2018-11-26T02:08:04.708Z,0.00
2018-11-26T02:09:04.620Z,0.00
2018-11-26T02:10:04.533Z,0.00
2018-11-26T02:11:04.458Z,0.00
2018-11-26T02:12:04.358Z,0.00
2018-11-26T02:13:04.285Z,0.00
2018-11-26T02:14:04.195Z,0.00
2018-11-26T02:15:04.109Z,0.00
2018-11-26T02:16:04.020Z,0.00
2018-11-26T02:17:03.934Z,0.00
2018-11-26T02:18:03.845Z,0.00
2018-11-26T02:19:03.760Z,0.00
2018-11-26T02:20:03.686Z,0.00
2018-11-26T02:21:03.584Z,0.00
2018-11-26T02:22:03.496Z,0.00
2018-11-26T02:23:03.412Z,0.00
2018-11-26T02:24:03.323Z,0.00
2018-11-26T02:25:03.246Z,0.00
2018-11-26T02:26:03.149Z,0.00
2018-11-26T02:27:03.064Z,0.00
2018-11-26T02:28:02.984Z,0.00
2018-11-26T02:29:02.885Z,0.00
2018-11-26T02:30:02.799Z,0.00
2018-11-26T02:31:02.723Z,0.00
2018-11-26T02:32:02.635Z,0.00
2018-11-26T02:33:02.566Z,0.00
2018-11-26T02:34:02.461Z,0.00
2018-11-26T02:35:02.373Z,0.00
2018-11-26T02:36:02.287Z,0.00
2018-11-26T02:37:02.204Z,0.00
2018-11-26T02:38:02.111Z,0.00
2018-11-26T02:39:02.036Z,0.00
2018-11-26T02:40:01.937Z,0.00
2018-11-26T02:41:01.850Z,0.00
2018-11-26T02:42:01.764Z,0.00
2018-11-26T02:43:01.674Z,0.00
2018-11-26T02:44:01.588Z,0.00
2018-11-26T02:45:01.506Z,0.00
2018-11-26T02:46:01.413Z,0.00
2018-11-26T02:47:01.324Z,0.00
2018-11-26T02:48:01.246Z,0.00
2018-11-26T02:49:01.152Z,0.00
2018-11-26T02:50:01.074Z,0.00
2018-11-26T02:51:00.988Z,0.00
2018-11-26T02:52:00.900Z,0.00
2018-11-26T02:53:00.814Z,0.00
2018-11-26T02:54:00.733Z,0.00
2018-11-26T02:55:00.638Z,0.00
2018-11-26T02:56:00.550Z,0.00
2018-11-26T02:57:00.465Z,0.00
2018-11-26T02:58:00.375Z,0.00
2018-11-26T02:59:00.289Z,0.00
2018-11-26T03:00:00.203Z,0.00
2018-11-26T03:01:00.118Z,0.00
2018-11-26T03:02:00.030Z,0.00
2018-11-26T03:02:59.940Z,0.00
2018-11-26T03:03:59.854Z,0.00
2018-11-26T03:04:59.765Z,0.00
2018-11-26T03:05:59.676Z,0.00
2018-11-26T03:06:59.591Z,0.00
2018-11-26T03:07:59.517Z,0.00
2018-11-26T03:08:59.427Z,0.00
2018-11-26T03:09:59.346Z,0.00
2018-11-26T03:10:59.252Z,0.00
2018-11-26T03:11:59.165Z,0.00
2018-11-26T03:12:59.076Z,0.00
2018-11-26T03:13:58.992Z,0.00
2018-11-26T03:14:58.915Z,0.00
2018-11-26T03:15:58.815Z,0.00
2018-11-26T03:16:58.727Z,0.00
2018-11-26T03:17:58.646Z,0.00
2018-11-26T03:18:58.552Z,0.00
2018-11-26T03:19:58.470Z,0.00
2018-11-26T03:20:58.377Z,0.00
2018-11-26T03:21:58.300Z,0.00
2018-11-26T03:22:58.216Z,0.00
2018-11-26T03:23:58.128Z,0.00
2018-11-26T03:24:58.044Z,0.00
2018-11-26T03:25:57.953Z,0.00
2018-11-26T03:26:57.867Z,0.00
2018-11-26T03:27:57.779Z,0.00
2018-11-26T03:28:57.692Z,0.00
2018-11-26T03:29:57.622Z,0.00
2018-11-26T03:30:57.519Z,0.00
2018-11-26T03:31:57.429Z,0.00
2018-11-26T03:32:57.345Z,0.00
2018-11-26T03:33:57.254Z,0.00
2018-11-26T03:34:57.168Z,0.00
2018-11-26T03:35:57.079Z,0.00
2018-11-26T03:36:56.994Z,0.00
2018-11-26T03:37:56.918Z,0.00
2018-11-26T03:38:56.818Z,0.00
2018-11-26T03:39:56.731Z,0.00
2018-11-26T03:40:56.649Z,0.00
2018-11-26T03:41:56.556Z,0.00
2018-11-26T03:42:56.487Z,0.00
2018-11-26T03:43:56.394Z,0.00
2018-11-26T03:44:56.320Z,0.00
2018-11-26T03:45:56.219Z,0.00
2018-11-26T03:46:56.130Z,0.00
2018-11-26T03:47:56.045Z,0.00
2018-11-26T03:48:55.999Z,0.00
2018-11-26T03:49:55.869Z,0.00
2018-11-26T03:50:55.781Z,0.00
2018-11-26T03:51:55.695Z,0.00
2018-11-26T03:52:55.607Z,0.00
2018-11-26T03:53:55.520Z,0.00
2018-11-26T03:54:55.432Z,0.00
2018-11-26T03:55:55.388Z,0.00
2018-11-26T03:56:55.259Z,0.00
2018-11-26T03:57:55.171Z,0.00
2018-11-26T03:58:55.081Z,0.00
2018-11-26T03:59:55.003Z,0.00
2018-11-26T04:00:54.921Z,0.00
2018-11-26T04:01:54.820Z,0.00
2018-11-26T04:02:54.733Z,0.00
2018-11-26T04:03:54.652Z,0.00
2018-11-26T04:04:54.558Z,0.00
2018-11-26T04:05:54.473Z,0.00
2018-11-26T04:06:54.384Z,0.00
2018-11-26T04:07:54.308Z,0.00
2018-11-26T04:08:54.225Z,0.00
2018-11-26T04:09:54.133Z,0.00
2018-11-26T04:10:54.047Z,0.00
2018-11-26T04:11:53.960Z,0.00
2018-11-26T04:12:53.872Z,0.00
2018-11-26T04:13:53.784Z,0.00
2018-11-26T04:14:53.706Z,0.00
2018-11-26T04:15:53.609Z,0.00
2018-11-26T04:16:53.522Z,0.00
2018-11-26T04:17:53.447Z,0.00
2018-11-26T04:18:53.347Z,0.00
2018-11-26T04:19:53.261Z,0.00
2018-11-26T04:20:53.173Z,0.00
2018-11-26T04:21:53.085Z,0.00
2018-11-26T04:22:53.015Z,0.00
2018-11-26T04:23:52.911Z,0.00
2018-11-26T04:24:52.823Z,0.00
2018-11-26T04:25:52.749Z,0.00
2018-11-26T04:26:52.650Z,0.00
2018-11-26T04:27:52.565Z,0.00
2018-11-26T04:28:52.485Z,0.00
2018-11-26T04:29:52.403Z,0.00
2018-11-26T04:30:52.313Z,0.00
2018-11-26T04:31:52.223Z,0.00
2018-11-26T04:32:52.137Z,0.00
2018-11-26T04:33:52.050Z,0.00
2018-11-26T04:34:51.965Z,0.00
2018-11-26T04:35:51.874Z,0.00
2018-11-26T04:36:51.786Z,0.00
2018-11-26T04:37:51.703Z,0.00
2018-11-26T04:38:51.612Z,0.00
2018-11-26T04:39:51.532Z,0.00
2018-11-26T04:40:51.436Z,0.00
2018-11-26T04:41:51.353Z,0.00
2018-11-26T04:42:51.262Z,0.00
2018-11-26T04:43:51.175Z,0.00
2018-11-26T04:44:51.089Z,0.00
2018-11-26T04:45:51.000Z,0.00
2018-11-26T04:46:50.913Z,0.00
2018-11-26T04:47:50.839Z,0.00
2018-11-26T04:48:50.752Z,0.00
2018-11-26T04:49:50.667Z,0.00
2018-11-26T04:50:50.576Z,0.00
2018-11-26T04:51:50.489Z,0.00
2018-11-26T04:52:50.401Z,0.00
2018-11-26T04:53:50.319Z,0.00
2018-11-26T04:54:50.227Z,0.00
2018-11-26T04:55:50.141Z,0.00
2018-11-26T04:56:50.052Z,0.00
2018-11-26T04:57:49.964Z,0.00
2018-11-26T04:58:49.878Z,0.00
2018-11-26T04:59:49.791Z,0.00
2018-11-26T05:00:49.703Z,0.00
2018-11-26T05:01:49.616Z,0.00
2018-11-26T05:02:49.539Z,0.00
2018-11-26T05:03:49.452Z,0.00
2018-11-26T05:04:49.364Z,0.00
2018-11-26T05:05:49.280Z,0.00
2018-11-26T05:06:49.190Z,0.00
2018-11-26T05:07:49.103Z,0.00
2018-11-26T05:08:49.015Z,0.00
2018-11-26T05:09:48.928Z,0.00
2018-11-26T05:10:48.843Z,0.00
2018-11-26T05:11:48.756Z,0.00
2018-11-26T05:12:48.666Z,0.00
2018-11-26T05:13:48.579Z,0.00
2018-11-26T05:14:48.504Z,0.00
2018-11-26T05:15:48.444Z,0.00
2018-11-26T05:16:48.330Z,0.00
2018-11-26T05:17:48.242Z,0.00
2018-11-26T05:18:48.154Z,0.00
2018-11-26T05:19:48.066Z,0.00
2018-11-26T05:20:47.979Z,0.00
2018-11-26T05:21:47.891Z,0.00
2018-11-26T05:22:47.808Z,0.00
2018-11-26T05:23:47.716Z,0.00
2018-11-26T05:24:47.633Z,0.00
2018-11-26T05:25:47.543Z,0.00
2018-11-26T05:26:47.468Z,0.00
2018-11-26T05:27:47.380Z,0.00
2018-11-26T05:28:47.292Z,0.00
2018-11-26T05:29:47.207Z,0.00
2018-11-26T05:30:47.130Z,0.00
2018-11-26T05:31:47.030Z,0.00
2018-11-26T05:32:46.946Z,0.00
2018-11-26T05:33:46.856Z,0.00
2018-11-26T05:34:46.767Z,0.00
2018-11-26T05:35:46.693Z,0.00
2018-11-26T05:36:46.606Z,0.00
2018-11-26T05:37:46.533Z,0.00
2018-11-26T05:38:46.433Z,0.00
2018-11-26T05:39:46.349Z,0.00
2018-11-26T05:40:46.257Z,0.00
2018-11-26T05:41:46.182Z,0.00
2018-11-26T05:42:46.082Z,0.00
2018-11-26T05:43:45.994Z,0.00
2018-11-26T05:44:45.913Z,0.00
2018-11-26T05:45:45.823Z,0.00
2018-11-26T05:46:45.744Z,0.00
2018-11-26T05:47:45.658Z,0.00
2018-11-26T05:48:45.570Z,0.00
2018-11-26T05:49:45.482Z,0.00
2018-11-26T05:50:45.397Z,0.00
2018-11-26T05:51:45.308Z,0.00
2018-11-26T05:52:45.220Z,0.00
2018-11-26T05:53:45.135Z,0.00
2018-11-26T05:54:45.045Z,0.00
2018-11-26T05:55:44.970Z,0.00
2018-11-26T05:56:44.883Z,0.00
2018-11-26T05:57:44.809Z,0.00
2018-11-26T05:58:44.711Z,0.00
2018-11-26T05:59:44.621Z,0.00
2018-11-26T06:00:44.538Z,0.00
2018-11-26T06:01:44.445Z,0.00
2018-11-26T06:02:44.362Z,0.00
2018-11-26T06:03:44.271Z,0.00
2018-11-26T06:04:44.184Z,0.00
2018-11-26T06:05:44.099Z,0.00
2018-11-26T06:06:44.021Z,0.00
2018-11-26T06:07:43.934Z,0.00
2018-11-26T06:08:43.846Z,0.00
2018-11-26T06:09:43.762Z,0.00
2018-11-26T06:10:43.672Z,0.00
2018-11-26T06:11:43.585Z,0.00
2018-11-26T06:12:43.497Z,0.00
2018-11-26T06:13:43.412Z,0.00
2018-11-26T06:14:43.323Z,0.00
2018-11-26T06:15:43.247Z,0.00
2018-11-26T06:16:43.164Z,0.00
2018-11-26T06:17:43.072Z,4.00
2018-11-26T06:18:42.987Z,4.00
2018-11-26T06:19:42.898Z,4.00
2018-11-26T06:20:42.814Z,4.00
2018-11-26T06:21:42.726Z,4.00
2018-11-26T06:22:42.636Z,4.00
2018-11-26T06:23:42.549Z,4.00
2018-11-26T06:24:42.475Z,8.00
2018-11-26T06:25:42.386Z,8.00
2018-11-26T06:26:42.299Z,8.00
2018-11-26T06:27:42.213Z,8.00
2018-11-26T06:28:42.124Z,12.00
2018-11-26T06:29:42.040Z,12.00
2018-11-26T06:30:41.964Z,16.00
2018-11-26T06:31:41.863Z,16.00
2018-11-26T06:32:41.785Z,16.00
2018-11-26T06:33:41.691Z,20.00
2018-11-26T06:34:42.534Z,20.00
2018-11-26T06:35:41.524Z,24.00
2018-11-26T06:36:41.438Z,24.00
2018-11-26T06:37:41.351Z,24.00
2018-11-26T06:38:41.264Z,32.00
2018-11-26T06:39:41.175Z,32.00
2018-11-26T06:40:41.088Z,36.00
2018-11-26T06:41:41.000Z,36.00
2018-11-26T06:42:40.920Z,44.00
2018-11-26T06:43:40.839Z,44.00
2018-11-26T06:44:40.750Z,48.00
2018-11-26T06:45:40.663Z,56.00
2018-11-26T06:46:40.589Z,64.00
2018-11-26T06:47:40.488Z,72.00
2018-11-26T06:48:40.402Z,72.00
2018-11-26T06:49:40.314Z,72.00
2018-11-26T06:50:40.230Z,80.00
2018-11-26T06:51:40.139Z,96.00
2018-11-26T06:52:40.065Z,100.00
2018-11-26T06:53:39.977Z,108.00
2018-11-26T06:54:39.889Z,136.00
2018-11-26T06:55:39.802Z,128.00
2018-11-26T06:56:39.717Z,152.00
2018-11-26T06:57:39.627Z,144.00
2018-11-26T06:58:39.541Z,120.00
2018-11-26T06:59:39.452Z,148.00
2018-11-26T07:00:39.392Z,160.00
2018-11-26T07:01:39.278Z,140.00
2018-11-26T07:02:39.203Z,156.00
2018-11-26T07:03:39.116Z,176.00
2018-11-26T07:04:39.041Z,172.00
2018-11-26T07:05:38.944Z,168.00
2018-11-26T07:06:38.853Z,156.00
2018-11-26T07:07:38.769Z,192.00
2018-11-26T07:08:38.678Z,160.00
2018-11-26T07:09:38.592Z,180.00
2018-11-26T07:10:38.504Z,184.00
2018-11-26T07:11:38.429Z,180.00
2018-11-26T07:12:38.342Z,220.00
2018-11-26T07:13:38.254Z,208.00
2018-11-26T07:14:38.167Z,236.00
2018-11-26T07:15:38.079Z,216.00
2018-11-26T07:16:37.994Z,208.00
2018-11-26T07:17:37.904Z,228.00
2018-11-26T07:18:37.818Z,244.00
2018-11-26T07:19:37.742Z,244.00
2018-11-26T07:20:37.655Z,220.00
2018-11-26T07:21:37.569Z,268.00
2018-11-26T07:22:37.484Z,236.00
2018-11-26T07:23:37.393Z,232.00
2018-11-26T07:24:37.305Z,228.00
2018-11-26T07:25:37.219Z,232.00
2018-11-26T07:26:37.131Z,260.00
2018-11-26T07:27:37.044Z,244.00
2018-11-26T07:28:36.956Z,200.00
2018-11-26T07:29:36.871Z,220.00
2018-11-26T07:30:36.794Z,280.00
2018-11-26T07:31:36.706Z,308.00
2018-11-26T07:32:36.619Z,308.00
2018-11-26T07:33:36.544Z,340.00
2018-11-26T07:34:36.449Z,336.00
2018-11-26T07:35:36.357Z,440.00
2018-11-26T07:36:36.269Z,388.00
2018-11-26T07:37:36.181Z,404.00
2018-11-26T07:38:36.099Z,484.00
2018-11-26T07:39:36.023Z,492.00
2018-11-26T07:40:35.956Z,428.00
2018-11-26T07:41:35.855Z,368.00
2018-11-26T07:42:35.757Z,484.00
2018-11-26T07:43:35.675Z,460.00
2018-11-26T07:44:35.582Z,396.00
2018-11-26T07:45:35.496Z,392.00
2018-11-26T07:46:35.407Z,476.00
2018-11-26T07:47:35.321Z,468.00
2018-11-26T07:48:35.246Z,496.00
2018-11-26T07:49:35.159Z,496.00
2018-11-26T07:50:35.073Z,500.00
2018-11-26T07:51:34.988Z,584.00
2018-11-26T07:52:34.896Z,608.00
2018-11-26T07:53:34.821Z,684.00
2018-11-26T07:54:34.723Z,716.00
2018-11-26T07:55:34.636Z,604.00
2018-11-26T07:56:34.558Z,640.00
2018-11-26T07:57:34.460Z,624.00
2018-11-26T07:58:34.384Z,596.00
2018-11-26T07:59:34.297Z,612.00
2018-11-26T08:00:34.213Z,624.00
2018-11-26T08:01:34.125Z,672.00
2018-11-26T08:02:34.034Z,796.00
2018-11-26T08:03:33.948Z,752.00
2018-11-26T08:04:33.862Z,680.00
2018-11-26T08:05:33.772Z,748.00
2018-11-26T08:06:33.699Z,804.00
2018-11-26T08:07:33.610Z,768.00
2018-11-26T08:08:33.523Z,852.00
2018-11-26T08:09:33.448Z,784.00
2018-11-26T08:10:33.348Z,668.00
2018-11-26T08:11:33.261Z,732.00
2018-11-26T08:12:33.177Z,800.00
2018-11-26T08:13:33.085Z,840.00
2018-11-26T08:14:33.000Z,892.00
2018-11-26T08:15:32.924Z,1036.00
2018-11-26T08:16:32.835Z,1108.00
2018-11-26T08:17:32.750Z,1064.00
2018-11-26T08:18:32.661Z,1076.00
2018-11-26T08:19:32.576Z,916.00
2018-11-26T08:20:32.487Z,892.00
2018-11-26T08:21:32.399Z,968.00
2018-11-26T08:22:32.328Z,972.00
2018-11-26T08:23:32.237Z,1212.00
2018-11-26T08:24:32.150Z,1216.00
2018-11-26T08:25:32.062Z,1312.00
2018-11-26T08:26:31.975Z,1152.00
2018-11-26T08:27:31.887Z,1184.00
2018-11-26T08:28:31.801Z,1204.00
2018-11-26T08:29:31.712Z,1124.00
2018-11-26T08:30:31.626Z,1164.00
2018-11-26T08:31:31.552Z,1248.00
2018-11-26T08:32:34.174Z,1276.00
2018-11-26T08:33:31.382Z,1244.00
2018-11-26T08:34:31.288Z,1236.00
2018-11-26T08:35:31.201Z,1340.00
2018-11-26T08:36:31.113Z,1168.00
2018-11-26T08:37:31.027Z,1252.00
2018-11-26T08:38:30.942Z,1408.00
2018-11-26T08:39:30.864Z,1572.00
2018-11-26T08:40:30.824Z,1556.00
2018-11-26T08:41:30.689Z,1452.00
2018-11-26T08:42:30.613Z,1612.00
2018-11-26T08:43:30.515Z,1640.00
2018-11-26T08:44:30.454Z,1668.00
2018-11-26T08:45:30.344Z,1564.00
2018-11-26T08:46:30.264Z,1936.00
2018-11-26T08:47:30.178Z,1936.00
2018-11-26T08:48:30.096Z,1840.00
2018-11-26T08:49:30.004Z,2344.00
2018-11-26T08:50:29.914Z,2000.00
2018-11-26T08:51:29.827Z,2396.00
2018-11-26T08:52:29.742Z,2320.00
2018-11-26T08:53:29.655Z,2388.00
2018-11-26T08:54:29.581Z,2524.00
2018-11-26T08:55:29.510Z,2480.00
2018-11-26T08:56:29.405Z,2272.00
2018-11-26T08:57:29.315Z,2280.00
2018-11-26T08:58:29.230Z,2340.00
2018-11-26T08:59:29.143Z,2248.00
2018-11-26T09:00:29.055Z,2252.00
2018-11-26T09:01:28.969Z,2328.00
2018-11-26T09:02:28.891Z,2236.00
2018-11-26T09:03:28.804Z,1980.00
2018-11-26T09:04:28.717Z,2176.00
2018-11-26T09:05:28.631Z,2176.00
2018-11-26T09:06:28.542Z,1980.00
2018-11-26T09:07:28.454Z,1892.00
2018-11-26T09:08:28.368Z,2052.00
2018-11-26T09:09:32.815Z,1988.00
2018-11-26T09:10:28.205Z,1812.00
2018-11-26T09:11:28.117Z,1700.00
2018-11-26T09:12:28.031Z,2064.00
2018-11-26T09:13:27.941Z,2232.00
2018-11-26T09:14:27.857Z,2228.00
2018-11-26T09:15:27.768Z,2148.00
2018-11-26T09:16:27.694Z,2264.00
2018-11-26T09:17:27.606Z,2184.00
2018-11-26T09:18:27.531Z,2148.00
2018-11-26T09:19:27.431Z,2200.00
2018-11-26T09:20:27.342Z,2280.00
2018-11-26T09:21:27.256Z,2088.00
2018-11-26T09:22:27.168Z,2316.00
2018-11-26T09:23:27.093Z,2316.00
2018-11-26T09:24:27.008Z,2312.00
2018-11-26T09:25:26.935Z,2468.00
2018-11-26T09:26:26.832Z,2628.00
2018-11-26T09:27:26.743Z,2420.00
2018-11-26T09:28:26.656Z,2104.00
2018-11-26T09:29:26.569Z,2692.00
2018-11-26T09:30:26.494Z,2764.00
2018-11-26T09:31:26.409Z,2664.00
2018-11-26T09:32:26.320Z,2548.00
2018-11-26T09:33:26.233Z,2768.00
2018-11-26T09:34:26.145Z,2392.00
2018-11-26T09:35:26.061Z,2604.00
2018-11-26T09:36:25.984Z,2344.00
2018-11-26T09:37:25.883Z,2700.00
2018-11-26T09:38:25.815Z,2844.00
2018-11-26T09:39:25.722Z,2480.00
2018-11-26T09:40:25.633Z,2748.00
2018-11-26T09:41:25.546Z,2868.00
2018-11-26T09:42:25.461Z,2532.00
2018-11-26T09:43:25.370Z,2836.00
2018-11-26T09:44:25.299Z,2936.00
2018-11-26T09:45:25.211Z,2692.00
2018-11-26T09:46:25.120Z,3044.00
2018-11-26T09:47:25.036Z,2956.00
2018-11-26T09:48:24.952Z,2748.00
2018-11-26T09:49:24.858Z,2480.00
2018-11-26T09:50:24.771Z,2800.00
2018-11-26T09:51:24.700Z,2852.00
2018-11-26T09:52:24.609Z,2860.00
2018-11-26T09:53:24.522Z,2852.00
2018-11-26T09:54:26.043Z,2472.00
2018-11-26T09:55:24.346Z,2760.00
2018-11-26T09:56:24.260Z,2692.00
2018-11-26T09:57:24.172Z,2900.00
2018-11-26T09:58:24.103Z,3004.00
2018-11-26T09:59:24.010Z,2776.00
2018-11-26T10:00:23.923Z,2588.00
2018-11-26T10:01:23.836Z,3264.00
2018-11-26T10:02:23.748Z,3536.00
2018-11-26T10:03:23.661Z,3568.00
2018-11-26T10:04:23.586Z,3704.00
2018-11-26T10:05:23.499Z,2976.00
2018-11-26T10:06:23.420Z,3168.00
2018-11-26T10:07:23.323Z,3652.00
2018-11-26T10:08:23.239Z,3164.00
2018-11-26T10:09:23.148Z,3436.00
2018-11-26T10:10:23.078Z,3824.00
2018-11-26T10:11:22.987Z,3452.00
2018-11-26T10:12:22.898Z,3060.00
2018-11-26T10:13:22.814Z,3544.00
2018-11-26T10:14:22.724Z,3416.00
2018-11-26T10:15:22.637Z,3480.00
2018-11-26T10:16:22.563Z,3292.00
2018-11-26T10:17:22.490Z,3508.00
2018-11-26T10:18:22.389Z,3904.00
2018-11-26T10:19:22.301Z,3360.00
2018-11-26T10:20:22.221Z,2700.00
2018-11-26T10:21:22.125Z,2916.00
2018-11-26T10:22:22.050Z,2716.00
2018-11-26T10:23:21.973Z,2632.00
2018-11-26T10:24:21.888Z,2936.00
2018-11-26T10:25:21.791Z,3152.00
2018-11-26T10:26:21.700Z,3008.00
2018-11-26T10:27:21.628Z,3028.00
2018-11-26T10:28:21.541Z,3612.00
2018-11-26T10:29:21.450Z,3536.00
2018-11-26T10:30:21.364Z,3528.00
2018-11-26T10:31:21.291Z,3300.00
2018-11-26T10:32:21.202Z,2796.00
2018-11-26T10:33:21.117Z,3248.00
2018-11-26T10:34:21.027Z,3516.00
2018-11-26T10:35:20.950Z,3328.00
2018-11-26T10:36:20.851Z,2852.00
2018-11-26T10:37:20.765Z,2772.00
2018-11-26T10:38:20.689Z,3276.00
2018-11-26T10:39:20.605Z,3672.00
2018-11-26T10:40:20.520Z,3384.00
2018-11-26T10:41:20.428Z,3484.00
2018-11-26T10:42:20.340Z,3400.00
2018-11-26T10:43:20.314Z,3084.00
2018-11-26T10:44:20.177Z,3004.00
2018-11-26T10:45:20.091Z,2908.00
2018-11-26T10:46:20.007Z,3552.00
2018-11-26T10:47:19.916Z,4016.00
2018-11-26T10:48:19.832Z,3324.00
2018-11-26T10:49:19.753Z,2808.00
2018-11-26T10:50:19.666Z,2408.00
2018-11-26T10:51:19.578Z,3068.00
2018-11-26T10:52:19.491Z,3568.00
2018-11-26T10:53:19.407Z,3292.00
2018-11-26T10:54:19.327Z,3368.00
2018-11-26T10:55:19.243Z,2952.00
2018-11-26T10:56:19.153Z,2556.00
2018-11-26T10:57:19.067Z,2576.00
2018-11-26T10:58:18.979Z,2828.00
2018-11-26T10:59:18.895Z,2652.00
2018-11-26T11:00:18.817Z,2608.00
2018-11-26T11:01:18.729Z,2764.00
2018-11-26T11:02:18.645Z,2664.00
2018-11-26T11:03:18.556Z,2592.00
2018-11-26T11:04:18.468Z,2500.00
2018-11-26T11:05:18.391Z,2508.00
2018-11-26T11:06:18.305Z,2568.00
2018-11-26T11:07:18.217Z,2652.00
2018-11-26T11:08:18.129Z,2704.00
2018-11-26T11:09:18.044Z,2528.00
2018-11-26T11:10:17.968Z,2488.00
2018-11-26T11:11:23.198Z,2552.00
2018-11-26T11:12:17.798Z,2704.00
2018-11-26T11:13:17.705Z,2748.00
2018-11-26T11:14:17.619Z,2632.00
2018-11-26T11:15:17.529Z,2508.00
2018-11-26T11:16:17.443Z,2596.00
2018-11-26T11:17:17.372Z,2452.00
2018-11-26T11:18:17.280Z,2112.00
2018-11-26T11:19:17.196Z,2104.00
2018-11-26T11:20:17.109Z,2056.00
2018-11-26T11:21:17.019Z,2300.00
2018-11-26T11:22:16.931Z,2264.00
2018-11-26T11:23:16.872Z,1916.00
2018-11-26T11:24:16.770Z,1996.00
2018-11-26T11:25:16.681Z,2212.00
2018-11-26T11:26:16.602Z,2080.00
2018-11-26T11:27:16.507Z,2108.00
2018-11-26T11:28:16.420Z,2080.00
2018-11-26T11:29:16.349Z,2368.00
2018-11-26T11:30:16.257Z,2380.00
2018-11-26T11:31:16.171Z,2148.00
2018-11-26T11:32:16.083Z,2196.00
2018-11-26T11:33:55.075Z,2404.00
2018-11-26T11:34:54.946Z,2240.00
2018-11-26T11:35:54.870Z,2336.00
2018-11-26T11:36:54.784Z,2000.00
2018-11-26T11:37:54.775Z,2068.00
2018-11-26T11:38:54.607Z,2276.00
2018-11-26T11:39:54.521Z,2316.00
2018-11-26T11:40:54.434Z,2120.00
2018-11-26T11:41:54.358Z,2004.00
2018-11-26T11:42:54.271Z,1924.00
2018-11-26T11:43:54.183Z,2040.00
2018-11-26T11:44:54.099Z,2112.00
2018-11-26T11:45:54.012Z,1932.00
2018-11-26T11:46:53.922Z,2072.00
2018-11-26T11:47:53.846Z,2076.00
2018-11-26T11:48:53.758Z,2100.00
2018-11-26T11:49:53.671Z,2304.00
2018-11-26T11:50:53.589Z,2276.00
2018-11-26T11:51:53.496Z,2024.00
2018-11-26T11:52:53.421Z,1988.00
2018-11-26T11:53:53.334Z,1968.00
2018-11-26T11:54:53.249Z,1848.00
2018-11-26T11:55:53.159Z,1912.00
2018-11-26T11:56:53.072Z,1900.00
2018-11-26T11:57:52.997Z,1888.00
2018-11-26T11:58:52.909Z,1884.00
2018-11-26T11:59:52.823Z,1896.00
2018-11-26T12:00:52.734Z,2004.00
2018-11-26T12:01:52.658Z,1848.00
2018-11-26T12:02:52.559Z,1888.00
2018-11-26T12:03:52.498Z,1864.00
2018-11-26T12:04:52.398Z,1852.00
2018-11-26T12:05:52.310Z,2004.00
2018-11-26T12:06:52.223Z,1976.00
2018-11-26T12:07:52.135Z,1844.00
2018-11-26T12:08:52.048Z,1824.00
2018-11-26T12:09:51.974Z,1944.00
2018-11-26T12:10:51.886Z,1792.00
2018-11-26T12:11:51.799Z,1848.00
2018-11-26T12:12:51.711Z,1804.00
2018-11-26T12:13:51.624Z,1836.00
2018-11-26T12:14:51.556Z,1744.00
2018-11-26T12:15:51.463Z,1612.00
2018-11-26T12:16:51.375Z,1672.00
2018-11-26T12:17:51.286Z,1652.00
2018-11-26T12:18:51.202Z,1684.00
2018-11-26T12:19:51.110Z,1664.00
2018-11-26T12:20:51.038Z,1588.00
2018-11-26T12:21:50.949Z,1672.00
2018-11-26T12:22:50.862Z,1668.00
2018-11-26T12:23:50.776Z,1792.00
2018-11-26T12:24:50.686Z,1832.00
2018-11-26T12:25:50.607Z,1764.00
2018-11-26T12:26:50.524Z,1792.00
2018-11-26T12:27:50.437Z,1696.00
2018-11-26T12:28:50.351Z,1640.00
2018-11-26T12:29:50.262Z,1628.00
2018-11-26T12:30:50.175Z,1608.00
2018-11-26T12:31:50.088Z,1640.00
2018-11-26T12:32:50.014Z,1656.00
2018-11-26T12:33:49.925Z,1712.00
2018-11-26T12:34:49.837Z,1780.00
2018-11-26T12:35:49.750Z,1848.00
2018-11-26T12:36:49.664Z,1728.00
2018-11-26T12:37:49.588Z,1760.00
2018-11-26T12:38:49.502Z,1684.00
2018-11-26T12:39:49.418Z,1616.00
2018-11-26T12:40:49.326Z,1592.00
2018-11-26T12:41:49.238Z,1456.00
2018-11-26T12:42:49.153Z,1364.00
2018-11-26T12:43:49.077Z,1404.00
2018-11-26T12:44:48.988Z,1368.00